sensor_id;sensor_type;location;lat;lon;timestamp;P1;durP1;ratioP1;P2;durP2;ratioP2
52650;SDS011;38537;47.226;39.702;2022-10-04T00:01:22;7.63;;;3.60;;
52650;SDS011;38537;47.226;39.702;2022-10-04T00:04:00;5.82;;;3.60;;
52650;SDS011;38537;47.226;39.702;2022-10-04T00:06:34;4.55;;;3.20;;
52650;SDS011;38537;47.226;39.702;2022-10-04T00:09:13;6.43;;;3.50;;
52650;SDS011;38537;47.226;39.702;2022-10-04T00:11:43;5.38;;;3.40;;
52650;SDS011;38537;47.226;39.702;2022-10-04T00:14:14;7.43;;;3.17;;
52650;SDS011;38537;47.226;39.702;2022-10-04T00:17:13;5.35;;;3.17;;
52650;SDS011;38537;47.226;39.702;2022-10-04T00:19:49;4.50;;;2.83;;
52650;SDS011;38537;47.226;39.702;2022-10-04T00:22:18;4.22;;;2.65;;
52650;SDS011;38537;47.226;39.702;2022-10-04T00:27:39;5.25;;;3.00;;
52650;SDS011;38537;47.226;39.702;2022-10-04T00:31:09;4.45;;;3.20;;
52650;SDS011;38537;47.226;39.702;2022-10-04T00:36:45;6.80;;;3.50;;
52650;SDS011;38537;47.226;39.702;2022-10-04T00:46:52;4.43;;;2.67;;
52650;SDS011;38537;47.226;39.702;2022-10-04T00:49:21;4.30;;;2.80;;
52650;SDS011;38537;47.226;39.702;2022-10-04T00:52:00;6.30;;;3.35;;
52650;SDS011;38537;47.226;39.702;2022-10-04T00:57:05;7.22;;;3.80;;
52650;SDS011;38537;47.226;39.702;2022-10-04T01:02:04;9.57;;;4.63;;
52650;SDS011;38537;47.226;39.702;2022-10-04T01:04:47;8.38;;;4.20;;
52650;SDS011;38537;47.226;39.702;2022-10-04T01:07:34;8.48;;;3.97;;
52650;SDS011;38537;47.226;39.702;2022-10-04T01:10:06;7.25;;;3.95;;
52650;SDS011;38537;47.226;39.702;2022-10-04T01:12:41;10.27;;;4.15;;
52650;SDS011;38537;47.226;39.702;2022-10-04T01:15:33;6.85;;;3.80;;
52650;SDS011;38537;47.226;39.702;2022-10-04T01:23:30;7.07;;;3.45;;
52650;SDS011;38537;47.226;39.702;2022-10-04T01:25:59;5.07;;;3.50;;
52650;SDS011;38537;47.226;39.702;2022-10-04T01:28:28;6.30;;;3.33;;
52650;SDS011;38537;47.226;39.702;2022-10-04T01:30:56;5.88;;;3.45;;
52650;SDS011;38537;47.226;39.702;2022-10-04T01:33:23;5.80;;;3.33;;
52650;SDS011;38537;47.226;39.702;2022-10-04T01:35:51;6.40;;;3.67;;
52650;SDS011;38537;47.226;39.702;2022-10-04T01:38:19;5.25;;;3.30;;
52650;SDS011;38537;47.226;39.702;2022-10-04T01:40:48;7.35;;;3.28;;
52650;SDS011;38537;47.226;39.702;2022-10-04T01:43:22;6.88;;;3.13;;
52650;SDS011;38537;47.226;39.702;2022-10-04T01:45:59;4.50;;;3.10;;
52650;SDS011;38537;47.226;39.702;2022-10-04T01:48:36;5.47;;;2.70;;
52650;SDS011;38537;47.226;39.702;2022-10-04T01:51:12;5.85;;;2.97;;
52650;SDS011;38537;47.226;39.702;2022-10-04T01:53:52;6.28;;;3.30;;
52650;SDS011;38537;47.226;39.702;2022-10-04T01:56:27;3.80;;;2.53;;
52650;SDS011;38537;47.226;39.702;2022-10-04T01:59:03;6.00;;;2.80;;
52650;SDS011;38537;47.226;39.702;2022-10-04T02:01:44;5.22;;;2.80;;
52650;SDS011;38537;47.226;39.702;2022-10-04T02:04:22;4.93;;;2.55;;
52650;SDS011;38537;47.226;39.702;2022-10-04T02:06:55;5.28;;;2.60;;
52650;SDS011;38537;47.226;39.702;2022-10-04T02:09:26;4.63;;;2.50;;
52650;SDS011;38537;47.226;39.702;2022-10-04T02:11:57;4.55;;;2.53;;
52650;SDS011;38537;47.226;39.702;2022-10-04T02:14:30;4.78;;;2.67;;
52650;SDS011;38537;47.226;39.702;2022-10-04T02:17:00;4.38;;;2.53;;
52650;SDS011;38537;47.226;39.702;2022-10-04T02:19:32;3.38;;;2.30;;
52650;SDS011;38537;47.226;39.702;2022-10-04T02:22:02;4.15;;;2.30;;
52650;SDS011;38537;47.226;39.702;2022-10-04T02:24:34;3.50;;;2.30;;
52650;SDS011;38537;47.226;39.702;2022-10-04T02:27:04;3.58;;;2.45;;
52650;SDS011;38537;47.226;39.702;2022-10-04T02:29:32;4.20;;;2.30;;
52650;SDS011;38537;47.226;39.702;2022-10-04T02:31:59;6.45;;;2.30;;
52650;SDS011;38537;47.226;39.702;2022-10-04T02:34:47;3.00;;;2.30;;
52650;SDS011;38537;47.226;39.702;2022-10-04T02:37:16;4.63;;;1.98;;
52650;SDS011;38537;47.226;39.702;2022-10-04T02:40:03;3.53;;;2.00;;
52650;SDS011;38537;47.226;39.702;2022-10-04T02:42:37;2.47;;;1.83;;
52650;SDS011;38537;47.226;39.702;2022-10-04T02:45:28;3.13;;;1.90;;
52650;SDS011;38537;47.226;39.702;2022-10-04T02:56:29;3.72;;;1.80;;
52650;SDS011;38537;47.226;39.702;2022-10-04T02:59:04;3.67;;;1.98;;
52650;SDS011;38537;47.226;39.702;2022-10-04T03:01:39;2.83;;;2.00;;
52650;SDS011;38537;47.226;39.702;2022-10-04T03:04:10;5.28;;;2.22;;
52650;SDS011;38537;47.226;39.702;2022-10-04T03:06:41;2.25;;;1.80;;
52650;SDS011;38537;47.226;39.702;2022-10-04T03:09:13;5.60;;;1.85;;
52650;SDS011;38537;47.226;39.702;2022-10-04T03:11:42;2.97;;;1.80;;
52650;SDS011;38537;47.226;39.702;2022-10-04T03:14:13;2.90;;;1.60;;
52650;SDS011;38537;47.226;39.702;2022-10-04T03:16:44;2.80;;;2.00;;
52650;SDS011;38537;47.226;39.702;2022-10-04T03:19:15;3.38;;;2.03;;
52650;SDS011;38537;47.226;39.702;2022-10-04T03:21:45;4.07;;;1.88;;
52650;SDS011;38537;47.226;39.702;2022-10-04T03:24:16;2.63;;;1.70;;
52650;SDS011;38537;47.226;39.702;2022-10-04T03:26:51;4.97;;;1.75;;
52650;SDS011;38537;47.226;39.702;2022-10-04T03:29:21;4.10;;;2.10;;
52650;SDS011;38537;47.226;39.702;2022-10-04T03:31:51;4.35;;;2.20;;
52650;SDS011;38537;47.226;39.702;2022-10-04T03:34:31;6.78;;;1.90;;
52650;SDS011;38537;47.226;39.702;2022-10-04T03:36:59;7.47;;;2.42;;
52650;SDS011;38537;47.226;39.702;2022-10-04T03:39:30;4.88;;;1.95;;
52650;SDS011;38537;47.226;39.702;2022-10-04T03:42:18;3.15;;;1.80;;
52650;SDS011;38537;47.226;39.702;2022-10-04T03:44:49;3.40;;;1.85;;
52650;SDS011;38537;47.226;39.702;2022-10-04T03:47:21;5.82;;;2.17;;
52650;SDS011;38537;47.226;39.702;2022-10-04T03:49:52;4.03;;;2.00;;
52650;SDS011;38537;47.226;39.702;2022-10-04T03:52:22;4.03;;;2.00;;
52650;SDS011;38537;47.226;39.702;2022-10-04T03:54:53;4.65;;;1.95;;
52650;SDS011;38537;47.226;39.702;2022-10-04T03:57:25;5.20;;;2.20;;
52650;SDS011;38537;47.226;39.702;2022-10-04T03:59:52;2.78;;;1.90;;
52650;SDS011;38537;47.226;39.702;2022-10-04T04:02:34;6.03;;;2.38;;
52650;SDS011;38537;47.226;39.702;2022-10-04T04:10:30;3.63;;;2.00;;
52650;SDS011;38537;47.226;39.702;2022-10-04T04:13:16;4.03;;;2.30;;
52650;SDS011;38537;47.226;39.702;2022-10-04T04:15:49;4.85;;;2.10;;
52650;SDS011;38537;47.226;39.702;2022-10-04T04:18:23;4.38;;;2.20;;
52650;SDS011;38537;47.226;39.702;2022-10-04T04:20:58;3.85;;;1.60;;
52650;SDS011;38537;47.226;39.702;2022-10-04T04:23:29;3.58;;;1.90;;
52650;SDS011;38537;47.226;39.702;2022-10-04T04:26:16;3.03;;;1.70;;
52650;SDS011;38537;47.226;39.702;2022-10-04T04:28:54;3.20;;;1.85;;
52650;SDS011;38537;47.226;39.702;2022-10-04T04:31:30;5.07;;;2.40;;
52650;SDS011;38537;47.226;39.702;2022-10-04T04:34:19;3.17;;;2.10;;
52650;SDS011;38537;47.226;39.702;2022-10-04T04:36:48;3.45;;;1.95;;
52650;SDS011;38537;47.226;39.702;2022-10-04T04:39:17;5.50;;;1.98;;
52650;SDS011;38537;47.226;39.702;2022-10-04T04:45:00;3.55;;;1.98;;
52650;SDS011;38537;47.226;39.702;2022-10-04T04:47:34;2.80;;;1.85;;
52650;SDS011;38537;47.226;39.702;2022-10-04T04:50:16;4.40;;;1.73;;
52650;SDS011;38537;47.226;39.702;2022-10-04T04:53:06;3.72;;;1.90;;
52650;SDS011;38537;47.226;39.702;2022-10-04T04:55:45;4.43;;;1.70;;
52650;SDS011;38537;47.226;39.702;2022-10-04T04:58:34;2.30;;;1.80;;
52650;SDS011;38537;47.226;39.702;2022-10-04T05:01:05;2.83;;;1.70;;
52650;SDS011;38537;47.226;39.702;2022-10-04T05:03:41;3.67;;;1.73;;
52650;SDS011;38537;47.226;39.702;2022-10-04T05:06:23;3.15;;;1.90;;
52650;SDS011;38537;47.226;39.702;2022-10-04T05:08:52;2.05;;;1.63;;
52650;SDS011;38537;47.226;39.702;2022-10-04T05:11:19;3.10;;;1.80;;
52650;SDS011;38537;47.226;39.702;2022-10-04T05:14:05;3.35;;;2.00;;
52650;SDS011;38537;47.226;39.702;2022-10-04T05:19:15;4.65;;;1.95;;
52650;SDS011;38537;47.226;39.702;2022-10-04T05:22:08;4.85;;;1.85;;
52650;SDS011;38537;47.226;39.702;2022-10-04T05:24:38;2.97;;;1.73;;
52650;SDS011;38537;47.226;39.702;2022-10-04T05:32:47;7.50;;;2.70;;
52650;SDS011;38537;47.226;39.702;2022-10-04T05:35:27;4.15;;;2.05;;
52650;SDS011;38537;47.226;39.702;2022-10-04T05:40:59;6.75;;;2.85;;
52650;SDS011;38537;47.226;39.702;2022-10-04T05:43:44;5.85;;;2.45;;
52650;SDS011;38537;47.226;39.702;2022-10-04T05:48:48;6.10;;;2.60;;
52650;SDS011;38537;47.226;39.702;2022-10-04T05:53:48;6.82;;;3.55;;
52650;SDS011;38537;47.226;39.702;2022-10-04T06:05:23;3.92;;;2.70;;
52650;SDS011;38537;47.226;39.702;2022-10-04T06:08:04;4.20;;;2.25;;
52650;SDS011;38537;47.226;39.702;2022-10-04T06:10:46;5.55;;;2.47;;
52650;SDS011;38537;47.226;39.702;2022-10-04T06:15:55;4.00;;;2.38;;
52650;SDS011;38537;47.226;39.702;2022-10-04T06:21:08;4.95;;;2.60;;
52650;SDS011;38537;47.226;39.702;2022-10-04T06:23:50;4.82;;;2.72;;
52650;SDS011;38537;47.226;39.702;2022-10-04T06:26:38;8.65;;;3.33;;
52650;SDS011;38537;47.226;39.702;2022-10-04T06:29:13;8.80;;;3.38;;
52650;SDS011;38537;47.226;39.702;2022-10-04T06:51:33;6.05;;;2.75;;
52650;SDS011;38537;47.226;39.702;2022-10-04T07:02:40;6.30;;;2.80;;
52650;SDS011;38537;47.226;39.702;2022-10-04T07:08:20;7.47;;;3.63;;
52650;SDS011;38537;47.226;39.702;2022-10-04T07:11:02;4.80;;;3.28;;
52650;SDS011;38537;47.226;39.702;2022-10-04T07:13:42;6.05;;;3.40;;
52650;SDS011;38537;47.226;39.702;2022-10-04T07:21:21;10.27;;;2.97;;
52650;SDS011;38537;47.226;39.702;2022-10-04T07:23:55;4.78;;;2.97;;
52650;SDS011;38537;47.226;39.702;2022-10-04T07:26:36;6.05;;;2.75;;
52650;SDS011;38537;47.226;39.702;2022-10-04T07:29:13;6.65;;;3.15;;
52650;SDS011;38537;47.226;39.702;2022-10-04T07:31:50;5.45;;;2.97;;
52650;SDS011;38537;47.226;39.702;2022-10-04T07:34:30;5.82;;;3.20;;
52650;SDS011;38537;47.226;39.702;2022-10-04T07:37:07;10.02;;;3.55;;
52650;SDS011;38537;47.226;39.702;2022-10-04T07:42:46;3.80;;;2.72;;
52650;SDS011;38537;47.226;39.702;2022-10-04T07:45:26;14.10;;;3.67;;
52650;SDS011;38537;47.226;39.702;2022-10-04T07:50:40;8.70;;;3.20;;
52650;SDS011;38537;47.226;39.702;2022-10-04T07:53:24;8.23;;;3.35;;
52650;SDS011;38537;47.226;39.702;2022-10-04T07:55:59;10.98;;;3.28;;
52650;SDS011;38537;47.226;39.702;2022-10-04T07:58:40;6.25;;;3.60;;
52650;SDS011;38537;47.226;39.702;2022-10-04T08:02:30;8.93;;;3.60;;
52650;SDS011;38537;47.226;39.702;2022-10-04T08:10:27;10.10;;;4.25;;
52650;SDS011;38537;47.226;39.702;2022-10-04T08:15:48;9.20;;;4.18;;
52650;SDS011;38537;47.226;39.702;2022-10-04T08:21:15;16.00;;;4.70;;
52650;SDS011;38537;47.226;39.702;2022-10-04T08:43:53;9.45;;;4.75;;
52650;SDS011;38537;47.226;39.702;2022-10-04T09:07:14;10.32;;;4.53;;
52650;SDS011;38537;47.226;39.702;2022-10-04T09:12:57;11.43;;;4.95;;
52650;SDS011;38537;47.226;39.702;2022-10-04T09:15:52;11.23;;;5.25;;
52650;SDS011;38537;47.226;39.702;2022-10-04T09:21:15;16.00;;;5.63;;
52650;SDS011;38537;47.226;39.702;2022-10-04T09:26:43;7.47;;;5.10;;
52650;SDS011;38537;47.226;39.702;2022-10-04T09:29:15;11.02;;;5.35;;
52650;SDS011;38537;47.226;39.702;2022-10-04T10:06:01;14.50;;;7.15;;
52650;SDS011;38537;47.226;39.702;2022-10-04T10:41:20;12.05;;;5.90;;
52650;SDS011;38537;47.226;39.702;2022-10-04T10:43:58;15.32;;;6.30;;
52650;SDS011;38537;47.226;39.702;2022-10-04T10:46:43;9.75;;;6.00;;
52650;SDS011;38537;47.226;39.702;2022-10-04T10:49:22;11.88;;;6.00;;
52650;SDS011;38537;47.226;39.702;2022-10-04T11:01:13;10.05;;;5.85;;
52650;SDS011;38537;47.226;39.702;2022-10-04T11:07:02;9.73;;;4.90;;
52650;SDS011;38537;47.226;39.702;2022-10-04T11:18:57;11.32;;;4.82;;
52650;SDS011;38537;47.226;39.702;2022-10-04T11:24:45;9.45;;;5.22;;
52650;SDS011;38537;47.226;39.702;2022-10-04T11:27:24;17.10;;;6.57;;
52650;SDS011;38537;47.226;39.702;2022-10-04T11:38:47;15.87;;;6.20;;
52650;SDS011;38537;47.226;39.702;2022-10-04T11:41:52;12.27;;;6.20;;
52650;SDS011;38537;47.226;39.702;2022-10-04T11:47:01;19.20;;;8.73;;
52650;SDS011;38537;47.226;39.702;2022-10-04T11:53:12;12.35;;;6.35;;
52650;SDS011;38537;47.226;39.702;2022-10-04T12:01:48;7.53;;;5.63;;
52650;SDS011;38537;47.226;39.702;2022-10-04T12:12:50;11.45;;;5.45;;
52650;SDS011;38537;47.226;39.702;2022-10-04T12:27:13;7.68;;;4.82;;
52650;SDS011;38537;47.226;39.702;2022-10-04T12:35:51;4.30;;;3.53;;
52650;SDS011;38537;47.226;39.702;2022-10-04T12:41:47;6.82;;;4.03;;
52650;SDS011;38537;47.226;39.702;2022-10-04T12:50:14;4.75;;;3.25;;
52650;SDS011;38537;47.226;39.702;2022-10-04T13:01:54;5.22;;;2.92;;
52650;SDS011;38537;47.226;39.702;2022-10-04T13:15:38;5.78;;;2.65;;
52650;SDS011;38537;47.226;39.702;2022-10-04T13:27:34;5.45;;;3.50;;
52650;SDS011;38537;47.226;39.702;2022-10-04T13:30:20;7.07;;;3.33;;
52650;SDS011;38537;47.226;39.702;2022-10-04T13:32:51;6.75;;;2.72;;
52650;SDS011;38537;47.226;39.702;2022-10-04T13:35:37;5.57;;;2.90;;
52650;SDS011;38537;47.226;39.702;2022-10-04T13:43:58;2.60;;;2.40;;
52650;SDS011;38537;47.226;39.702;2022-10-04T13:52:11;4.10;;;2.60;;
52650;SDS011;38537;47.226;39.702;2022-10-04T13:55:22;2.55;;;1.85;;
52650;SDS011;38537;47.226;39.702;2022-10-04T14:06:38;5.35;;;2.35;;
52650;SDS011;38537;47.226;39.702;2022-10-04T14:17:52;5.97;;;3.45;;
52650;SDS011;38537;47.226;39.702;2022-10-04T15:04:00;5.78;;;3.40;;
52650;SDS011;38537;47.226;39.702;2022-10-04T15:17:39;10.00;;;3.45;;
52650;SDS011;38537;47.226;39.702;2022-10-04T15:20:23;6.05;;;3.95;;
52650;SDS011;38537;47.226;39.702;2022-10-04T15:42:32;5.35;;;2.90;;
52650;SDS011;38537;47.226;39.702;2022-10-04T15:45:45;4.90;;;2.60;;
52650;SDS011;38537;47.226;39.702;2022-10-04T16:10:27;4.93;;;2.47;;
52650;SDS011;38537;47.226;39.702;2022-10-04T16:18:43;3.05;;;2.72;;
52650;SDS011;38537;47.226;39.702;2022-10-04T16:32:43;6.28;;;4.07;;
52650;SDS011;38537;47.226;39.702;2022-10-04T16:41:04;5.80;;;5.13;;
52650;SDS011;38537;47.226;39.702;2022-10-04T16:43:45;8.43;;;4.53;;
52650;SDS011;38537;47.226;39.702;2022-10-04T17:06:28;6.95;;;4.00;;
52650;SDS011;38537;47.226;39.702;2022-10-04T17:28:57;4.82;;;2.72;;
52650;SDS011;38537;47.226;39.702;2022-10-04T17:31:38;5.65;;;2.80;;
52650;SDS011;38537;47.226;39.702;2022-10-04T17:37:10;3.85;;;2.70;;
52650;SDS011;38537;47.226;39.702;2022-10-04T17:39:58;5.93;;;2.67;;
52650;SDS011;38537;47.226;39.702;2022-10-04T17:42:48;6.18;;;2.92;;
52650;SDS011;38537;47.226;39.702;2022-10-04T17:45:55;4.13;;;1.80;;
52650;SDS011;38537;47.226;39.702;2022-10-04T17:52:12;3.22;;;2.17;;
52650;SDS011;38537;47.226;39.702;2022-10-04T17:55:10;3.00;;;2.30;;
52650;SDS011;38537;47.226;39.702;2022-10-04T17:57:48;3.72;;;1.45;;
52650;SDS011;38537;47.226;39.702;2022-10-04T18:00:22;5.97;;;1.77;;
52650;SDS011;38537;47.226;39.702;2022-10-04T18:06:11;2.38;;;1.90;;
52650;SDS011;38537;47.226;39.702;2022-10-04T18:08:49;3.42;;;1.60;;
52650;SDS011;38537;47.226;39.702;2022-10-04T18:11:29;3.30;;;1.92;;
52650;SDS011;38537;47.226;39.702;2022-10-04T18:16:48;3.10;;;1.92;;
52650;SDS011;38537;47.226;39.702;2022-10-04T18:22:17;4.45;;;2.00;;
52650;SDS011;38537;47.226;39.702;2022-10-04T18:24:47;3.08;;;1.98;;
52650;SDS011;38537;47.226;39.702;2022-10-04T18:27:29;3.92;;;2.28;;
52650;SDS011;38537;47.226;39.702;2022-10-04T18:37:43;4.25;;;2.50;;
52650;SDS011;38537;47.226;39.702;2022-10-04T18:40:21;5.55;;;2.72;;
52650;SDS011;38537;47.226;39.702;2022-10-04T18:42:50;4.35;;;2.30;;
52650;SDS011;38537;47.226;39.702;2022-10-04T18:45:20;4.57;;;2.30;;
52650;SDS011;38537;47.226;39.702;2022-10-04T18:47:58;3.40;;;2.53;;
52650;SDS011;38537;47.226;39.702;2022-10-04T18:50:40;3.95;;;2.10;;
52650;SDS011;38537;47.226;39.702;2022-10-04T18:56:08;3.80;;;2.30;;
52650;SDS011;38537;47.226;39.702;2022-10-04T18:58:47;3.38;;;1.90;;
52650;SDS011;38537;47.226;39.702;2022-10-04T19:04:41;5.00;;;2.58;;
52650;SDS011;38537;47.226;39.702;2022-10-04T19:10:20;3.40;;;2.25;;
52650;SDS011;38537;47.226;39.702;2022-10-04T19:13:27;7.15;;;3.22;;
52650;SDS011;38537;47.226;39.702;2022-10-04T19:27:03;4.03;;;2.00;;
52650;SDS011;38537;47.226;39.702;2022-10-04T19:29:55;4.85;;;1.77;;
52650;SDS011;38537;47.226;39.702;2022-10-04T19:50:20;2.60;;;1.95;;
52650;SDS011;38537;47.226;39.702;2022-10-04T19:52:50;4.35;;;2.28;;
52650;SDS011;38537;47.226;39.702;2022-10-04T20:00:33;3.60;;;2.08;;
52650;SDS011;38537;47.226;39.702;2022-10-04T20:03:01;5.10;;;2.25;;
52650;SDS011;38537;47.226;39.702;2022-10-04T20:05:46;5.15;;;1.92;;
52650;SDS011;38537;47.226;39.702;2022-10-04T20:11:12;4.50;;;2.25;;
52650;SDS011;38537;47.226;39.702;2022-10-04T20:13:43;4.05;;;2.20;;
52650;SDS011;38537;47.226;39.702;2022-10-04T20:16:10;6.03;;;2.42;;
52650;SDS011;38537;47.226;39.702;2022-10-04T20:21:08;4.25;;;2.40;;
52650;SDS011;38537;47.226;39.702;2022-10-04T20:26:07;2.88;;;2.08;;
52650;SDS011;38537;47.226;39.702;2022-10-04T20:36:08;4.22;;;2.38;;
52650;SDS011;38537;47.226;39.702;2022-10-04T20:38:55;3.72;;;2.58;;
52650;SDS011;38537;47.226;39.702;2022-10-04T20:43:55;5.10;;;2.20;;
52650;SDS011;38537;47.226;39.702;2022-10-04T20:46:25;3.22;;;2.20;;
52650;SDS011;38537;47.226;39.702;2022-10-04T20:48:57;3.75;;;2.20;;
52650;SDS011;38537;47.226;39.702;2022-10-04T20:51:24;4.50;;;1.85;;
52650;SDS011;38537;47.226;39.702;2022-10-04T20:53:55;3.72;;;2.15;;
52650;SDS011;38537;47.226;39.702;2022-10-04T20:58:57;4.03;;;2.13;;
52650;SDS011;38537;47.226;39.702;2022-10-04T21:01:27;3.88;;;2.10;;
52650;SDS011;38537;47.226;39.702;2022-10-04T21:06:52;3.83;;;1.80;;
52650;SDS011;38537;47.226;39.702;2022-10-04T21:09:20;2.83;;;1.80;;
52650;SDS011;38537;47.226;39.702;2022-10-04T21:11:52;3.22;;;1.80;;
52650;SDS011;38537;47.226;39.702;2022-10-04T21:14:21;3.63;;;1.77;;
52650;SDS011;38537;47.226;39.702;2022-10-04T21:16:54;4.70;;;2.80;;
52650;SDS011;38537;47.226;39.702;2022-10-04T21:22:00;3.08;;;1.90;;
52650;SDS011;38537;47.226;39.702;2022-10-04T21:27:10;4.82;;;2.30;;
52650;SDS011;38537;47.226;39.702;2022-10-04T21:29:38;5.88;;;2.20;;
52650;SDS011;38537;47.226;39.702;2022-10-04T21:32:05;4.32;;;2.08;;
52650;SDS011;38537;47.226;39.702;2022-10-04T21:34:33;3.97;;;2.17;;
52650;SDS011;38537;47.226;39.702;2022-10-04T21:37:18;3.90;;;2.20;;
52650;SDS011;38537;47.226;39.702;2022-10-04T21:39:46;5.13;;;1.90;;
52650;SDS011;38537;47.226;39.702;2022-10-04T21:42:13;4.30;;;2.00;;
52650;SDS011;38537;47.226;39.702;2022-10-04T21:44:41;6.05;;;2.22;;
52650;SDS011;38537;47.226;39.702;2022-10-04T21:47:09;3.47;;;2.30;;
52650;SDS011;38537;47.226;39.702;2022-10-04T21:49:36;4.32;;;2.20;;
52650;SDS011;38537;47.226;39.702;2022-10-04T21:52:04;4.78;;;2.38;;
52650;SDS011;38537;47.226;39.702;2022-10-04T21:54:32;5.05;;;2.35;;
52650;SDS011;38537;47.226;39.702;2022-10-04T21:56:59;5.60;;;2.78;;
52650;SDS011;38537;47.226;39.702;2022-10-04T21:59:27;4.68;;;2.25;;
52650;SDS011;38537;47.226;39.702;2022-10-04T22:01:54;6.32;;;2.45;;
52650;SDS011;38537;47.226;39.702;2022-10-04T22:04:21;4.55;;;2.35;;
52650;SDS011;38537;47.226;39.702;2022-10-04T22:06:48;3.92;;;2.45;;
52650;SDS011;38537;47.226;39.702;2022-10-04T22:09:16;5.03;;;2.45;;
52650;SDS011;38537;47.226;39.702;2022-10-04T22:11:43;5.90;;;2.58;;
52650;SDS011;38537;47.226;39.702;2022-10-04T22:14:11;6.00;;;2.35;;
52650;SDS011;38537;47.226;39.702;2022-10-04T22:16:39;4.78;;;2.40;;
52650;SDS011;38537;47.226;39.702;2022-10-04T22:19:06;4.50;;;2.40;;
52650;SDS011;38537;47.226;39.702;2022-10-04T22:21:33;6.65;;;2.45;;
52650;SDS011;38537;47.226;39.702;2022-10-04T22:24:02;4.95;;;2.50;;
52650;SDS011;38537;47.226;39.702;2022-10-04T22:26:30;5.30;;;2.53;;
52650;SDS011;38537;47.226;39.702;2022-10-04T22:28:57;4.57;;;2.42;;
52650;SDS011;38537;47.226;39.702;2022-10-04T22:31:25;3.35;;;2.20;;
52650;SDS011;38537;47.226;39.702;2022-10-04T22:33:55;3.97;;;2.55;;
52650;SDS011;38537;47.226;39.702;2022-10-04T22:36:34;7.03;;;2.30;;
52650;SDS011;38537;47.226;39.702;2022-10-04T22:44:15;5.70;;;2.60;;
52650;SDS011;38537;47.226;39.702;2022-10-04T22:46:47;5.13;;;2.88;;
52650;SDS011;38537;47.226;39.702;2022-10-04T22:49:20;5.22;;;3.00;;
52650;SDS011;38537;47.226;39.702;2022-10-04T22:51:52;4.32;;;2.65;;
52650;SDS011;38537;47.226;39.702;2022-10-04T22:54:23;4.80;;;3.05;;
52650;SDS011;38537;47.226;39.702;2022-10-04T22:56:53;5.70;;;3.33;;
52650;SDS011;38537;47.226;39.702;2022-10-04T22:59:25;5.45;;;3.13;;
52650;SDS011;38537;47.226;39.702;2022-10-04T23:01:59;4.38;;;2.92;;
52650;SDS011;38537;47.226;39.702;2022-10-04T23:04:34;5.53;;;3.10;;
52650;SDS011;38537;47.226;39.702;2022-10-04T23:07:01;6.53;;;2.97;;
52650;SDS011;38537;47.226;39.702;2022-10-04T23:09:29;5.90;;;3.17;;
52650;SDS011;38537;47.226;39.702;2022-10-04T23:11:56;6.35;;;3.20;;
52650;SDS011;38537;47.226;39.702;2022-10-04T23:14:23;7.00;;;3.40;;
52650;SDS011;38537;47.226;39.702;2022-10-04T23:16:50;6.35;;;3.28;;
52650;SDS011;38537;47.226;39.702;2022-10-04T23:19:18;5.93;;;3.47;;
52650;SDS011;38537;47.226;39.702;2022-10-04T23:21:49;6.40;;;3.25;;
52650;SDS011;38537;47.226;39.702;2022-10-04T23:24:19;6.03;;;3.22;;
52650;SDS011;38537;47.226;39.702;2022-10-04T23:26:54;6.90;;;3.42;;
52650;SDS011;38537;47.226;39.702;2022-10-04T23:29:22;7.07;;;3.28;;
52650;SDS011;38537;47.226;39.702;2022-10-04T23:31:52;5.88;;;3.53;;
52650;SDS011;38537;47.226;39.702;2022-10-04T23:34:37;5.53;;;3.15;;
52650;SDS011;38537;47.226;39.702;2022-10-04T23:37:16;6.35;;;3.05;;
52650;SDS011;38537;47.226;39.702;2022-10-04T23:39:46;7.35;;;3.10;;
52650;SDS011;38537;47.226;39.702;2022-10-04T23:42:22;5.88;;;2.90;;
52650;SDS011;38537;47.226;39.702;2022-10-04T23:44:55;5.43;;;3.13;;
52650;SDS011;38537;47.226;39.702;2022-10-04T23:47:33;6.13;;;2.97;;
52650;SDS011;38537;47.226;39.702;2022-10-04T23:50:06;5.40;;;3.03;;
52650;SDS011;38537;47.226;39.702;2022-10-04T23:52:43;5.70;;;2.80;;
52650;SDS011;38537;47.226;39.702;2022-10-04T23:55:30;4.05;;;2.80;;
52650;SDS011;38537;47.226;39.702;2022-10-04T23:58:00;6.88;;;3.22;;
